Time;durP1;ratioP1;P1;durP2;ratioP2;P2;SDS_P1;SDS_P2;PMS_P1;PMS_P2;Temp;Humidity;BMP_temperature;BMP_pressure;BME280_temperature;BME280_humidity;BME280_pressure;Samples;Min_cycle;Max_cycle;Signal;HPM_P1;HPM_P2
2022/05/25 00:00:36;;;;;;;10.25;6.10;;;;;;;13.35;70.31;100424.91;5043832;28;20049;-70
2022/05/25 00:03:04;;;;;;;8.27;5.03;;;;;;;13.32;70.54;100425.13;5049411;28;20147;-72
2022/05/25 00:05:32;;;;;;;6.57;3.58;;;;;;;13.28;71.02;100443.00;5014425;28;20573;-74
2022/05/25 00:08:00;;;;;;;6.15;3.25;;;;;;;13.25;70.97;100445.03;5064318;28;20739;-72
2022/05/25 00:10:27;;;;;;;5.38;3.60;;;;;;;13.21;71.18;100448.81;5064523;28;20067;-73
2022/05/25 00:12:55;;;;;;;5.45;2.47;;;;;;;13.18;70.87;100450.72;5060506;28;20075;-71
2022/05/25 00:15:22;;;;;;;6.22;2.40;;;;;;;13.14;71.86;100458.97;5063969;28;20053;-71
2022/05/25 00:17:50;;;;;;;4.80;2.42;;;;;;;13.10;71.35;100452.22;5048378;28;20045;-71
2022/05/25 00:20:19;;;;;;;6.10;2.15;;;;;;;13.08;71.57;100456.78;5050482;28;20750;-69
2022/05/25 00:22:52;;;;;;;4.38;2.35;;;;;;;13.08;71.82;100454.16;5066617;28;20044;-69
2022/05/25 00:25:22;;;;;;;5.50;2.45;;;;;;;13.06;71.61;100451.63;5021860;28;20057;-71
2022/05/25 00:27:50;;;;;;;6.72;2.45;;;;;;;13.05;71.41;100457.00;5047595;28;20568;-70
2022/05/25 00:30:18;;;;;;;3.83;2.38;;;;;;;13.01;72.38;100463.47;5066057;28;20418;-71
2022/05/25 00:32:45;;;;;;;4.82;2.17;;;;;;;12.97;71.90;100470.78;5044551;28;20107;-72
2022/05/25 00:35:18;;;;;;;3.58;2.78;;;;;;;12.92;72.36;100465.84;5031796;28;20076;-71
2022/05/25 00:37:46;;;;;;;4.43;2.25;;;;;;;12.90;72.42;100467.72;5045650;28;20049;-72
2022/05/25 00:40:17;;;;;;;4.63;2.28;;;;;;;12.89;72.45;100473.13;5064850;28;20122;-71
2022/05/25 00:42:47;;;;;;;4.63;2.15;;;;;;;12.87;72.21;100469.72;5060818;28;20071;-71
2022/05/25 00:45:15;;;;;;;4.53;2.35;;;;;;;12.84;72.42;100475.25;5044336;28;20562;-70
2022/05/25 00:47:45;;;;;;;5.00;2.45;;;;;;;12.82;72.71;100470.06;5066652;28;20071;-71
2022/05/25 00:50:16;;;;;;;3.20;2.22;;;;;;;12.81;72.94;100463.09;5043488;28;20072;-70
2022/05/25 00:52:46;;;;;;;4.53;2.33;;;;;;;12.81;72.40;100462.25;5026468;28;20063;-71
2022/05/25 00:55:17;;;;;;;3.72;2.53;;;;;;;12.80;72.65;100457.94;5063197;28;20409;-71
2022/05/25 00:57:47;;;;;;;2.67;1.80;;;;;;;12.78;72.67;100457.19;5053502;28;20531;-70
2022/05/25 01:00:15;;;;;;;3.95;2.17;;;;;;;12.75;73.08;100458.25;5041913;28;20052;-71
2022/05/25 01:02:49;;;;;;;3.80;2.55;;;;;;;12.69;73.39;100450.75;5066179;28;20044;-70
2022/05/25 01:05:21;;;;;;;5.50;2.65;;;;;;;12.66;74.57;100448.34;5024524;28;20327;-70
2022/05/25 01:08:13;;;;;;;5.40;2.67;;;;;;;12.61;74.71;100461.03;5041743;28;20048;-70
2022/05/25 01:11:14;;;;;;;4.75;2.70;;;;;;;12.55;74.75;100446.44;5064385;28;20651;-70
2022/05/25 01:13:49;;;;;;;5.03;2.35;;;;;;;12.50;74.79;100456.47;5021191;28;20060;-71
2022/05/25 01:16:36;;;;;;;3.45;2.22;;;;;;;12.47;75.36;100453.19;5045426;28;20120;-71
2022/05/25 01:19:04;;;;;;;4.50;2.15;;;;;;;12.44;75.19;100454.28;5057066;28;20068;-72
2022/05/25 01:21:40;;;;;;;3.55;2.38;;;;;;;12.41;75.77;100454.47;5047371;28;20206;-72
2022/05/25 01:24:26;;;;;;;4.00;2.58;;;;;;;12.39;76.35;100454.59;5066370;28;20068;-72
2022/05/25 01:27:13;;;;;;;6.75;2.55;;;;;;;12.41;76.47;100454.47;5071963;28;20068;-71
2022/05/25 01:30:08;;;;;;;3.97;2.63;;;;;;;12.39;76.36;100453.75;5049001;28;20040;-72
2022/05/25 01:32:35;;;;;;;6.20;2.53;;;;;;;12.38;76.15;100457.31;5067617;28;20580;-72
2022/05/25 01:35:40;;;;;;;2.70;2.35;;;;;;;12.36;76.20;100460.06;5058765;28;20060;-71
2022/05/25 01:38:14;;;;;;;6.47;2.83;;;;;;;12.36;76.54;100453.94;5061006;28;20083;-72
2022/05/25 01:40:46;;;;;;;3.97;2.83;;;;;;;12.36;76.92;100446.88;5069481;28;20482;-71
2022/05/25 01:43:21;;;;;;;6.13;2.63;;;;;;;12.37;76.27;100439.78;5048368;28;20036;-71
2022/05/25 01:45:53;;;;;;;4.50;2.72;;;;;;;12.38;77.01;100449.41;5049008;28;20053;-72
2022/05/25 01:48:22;;;;;;;3.42;2.85;;;;;;;12.36;76.73;100449.50;5031500;28;20040;-71
2022/05/25 01:50:53;;;;;;;3.63;2.88;;;;;;;12.33;76.48;100454.16;5046195;28;20150;-72
2022/05/25 01:53:23;;;;;;;4.35;2.65;;;;;;;12.32;77.24;100465.66;5048020;28;20056;-71
2022/05/25 01:55:54;;;;;;;4.88;2.65;;;;;;;12.32;77.10;100470.94;5043497;28;20061;-70
2022/05/25 01:58:23;;;;;;;3.88;2.92;;;;;;;12.34;77.39;100472.53;5047347;28;20127;-71
2022/05/25 02:00:56;;;;;;;6.13;2.90;;;;;;;12.33;77.15;100470.84;5044512;28;20155;-70
2022/05/25 02:06:28;;;;;;;4.53;2.75;;;;;;;12.34;77.27;100479.63;5042240;28;20059;-71
2022/05/25 02:09:35;;;;;;;3.58;2.50;;;;;;;12.33;77.40;100484.03;5044206;28;20098;-71
2022/05/25 02:12:46;;;;;;;6.43;2.50;;;;;;;12.30;77.41;100486.91;5029092;28;20464;-72
2022/05/25 02:15:31;;;;;;;3.60;2.40;;;;;;;12.26;78.20;100487.22;5023850;28;20056;-71
2022/05/25 02:18:07;;;;;;;3.38;2.58;;;;;;;12.24;78.12;100487.28;5035269;28;20237;-71
2022/05/25 02:21:10;;;;;;;4.25;2.55;;;;;;;12.23;78.06;100484.78;5045869;28;20307;-70
2022/05/25 02:23:46;;;;;;;4.55;2.95;;;;;;;12.21;78.66;100494.59;5044014;28;20052;-70
2022/05/25 02:26:19;;;;;;;4.28;2.75;;;;;;;12.20;78.44;100488.44;5042323;28;20127;-71
2022/05/25 02:29:06;;;;;;;3.05;2.72;;;;;;;12.20;78.52;100488.44;5039700;28;20091;-72
2022/05/25 02:31:36;;;;;;;6.32;3.05;;;;;;;12.20;78.80;100482.34;5070426;28;20116;-71
2022/05/25 02:34:06;;;;;;;4.78;2.78;;;;;;;12.20;78.83;100487.59;5054976;28;20048;-72
2022/05/25 02:36:34;;;;;;;6.88;3.15;;;;;;;12.20;79.12;100495.53;5046160;28;20536;-71
2022/05/25 02:39:05;;;;;;;4.60;3.42;;;;;;;12.19;79.05;100493.84;5027900;28;20037;-74
2022/05/25 02:41:34;;;;;;;4.40;3.15;;;;;;;12.18;79.13;100508.00;5061694;28;20071;-71
2022/05/25 02:44:02;;;;;;;7.13;3.17;;;;;;;12.17;79.87;100517.72;5065158;28;20078;-71
2022/05/25 02:46:30;;;;;;;4.22;3.10;;;;;;;12.18;79.77;100514.13;5040981;28;20139;-72
2022/05/25 02:48:58;;;;;;;6.75;4.07;;;;;;;12.25;80.13;100511.91;5044981;28;20101;-70
2022/05/25 02:51:25;;;;;;;6.93;3.30;;;;;;;12.32;79.63;100499.97;5043709;28;20053;-71
2022/05/25 02:53:53;;;;;;;6.60;3.60;;;;;;;12.39;79.72;100506.53;5065683;28;20048;-70
2022/05/25 02:56:21;;;;;;;5.57;4.10;;;;;;;12.44;79.75;100504.44;5025936;28;20076;-70
2022/05/25 02:58:48;;;;;;;5.18;3.58;;;;;;;12.48;79.58;100498.00;5061902;28;20040;-70
2022/05/25 03:01:16;;;;;;;6.68;3.65;;;;;;;12.54;79.30;100508.13;5045769;28;20059;-72
2022/05/25 03:03:43;;;;;;;6.07;4.03;;;;;;;12.56;79.65;100498.31;5067576;28;20055;-70
2022/05/25 03:06:11;;;;;;;6.07;3.83;;;;;;;12.61;79.63;100509.41;5044574;28;20049;-71
2022/05/25 03:08:39;;;;;;;7.35;3.78;;;;;;;12.65;79.52;100520.56;5062773;28;20436;-71
2022/05/25 03:11:07;;;;;;;5.22;3.80;;;;;;;12.68;78.91;100510.66;5063151;28;20051;-71
2022/05/25 03:13:35;;;;;;;7.72;4.00;;;;;;;12.73;79.23;100520.06;5059691;28;20040;-73
2022/05/25 03:16:05;;;;;;;6.20;3.60;;;;;;;12.74;79.53;100529.66;5039127;28;20045;-71
2022/05/25 03:18:32;;;;;;;7.43;4.60;;;;;;;12.78;79.81;100541.72;5060607;28;20479;-71
2022/05/25 03:21:00;;;;;;;5.13;3.67;;;;;;;12.82;79.47;100536.09;5021516;28;20044;-71
2022/05/25 03:23:27;;;;;;;4.35;3.67;;;;;;;12.88;79.74;100538.34;5026104;28;20094;-70
2022/05/25 03:25:54;;;;;;;5.88;4.13;;;;;;;12.94;79.70;100537.06;5060376;28;20483;-71
2022/05/25 03:28:22;;;;;;;6.28;3.90;;;;;;;12.99;79.43;100544.66;5046021;28;20054;-72
2022/05/25 03:30:49;;;;;;;6.95;4.32;;;;;;;12.99;79.99;100545.50;5055663;28;20091;-71
2022/05/25 03:33:17;;;;;;;6.78;4.30;;;;;;;13.05;79.66;100549.50;5033173;28;20110;-70
2022/05/25 03:35:44;;;;;;;10.35;4.32;;;;;;;13.07;79.82;100553.75;5061169;28;20545;-71
2022/05/25 03:38:12;;;;;;;7.43;3.55;;;;;;;13.14;79.47;100557.63;5062159;28;20051;-71
2022/05/25 03:40:40;;;;;;;4.65;3.72;;;;;;;13.17;79.39;100560.06;5043103;28;20524;-70
2022/05/25 03:43:12;;;;;;;7.35;4.20;;;;;;;13.22;79.26;100557.13;5018212;28;20044;-70
2022/05/25 03:45:39;;;;;;;6.10;4.30;;;;;;;13.27;78.35;100559.44;5042813;28;20110;-72
2022/05/25 03:48:07;;;;;;;10.35;4.18;;;;;;;13.32;78.03;100562.59;5056389;28;20083;-70
2022/05/25 03:50:36;;;;;;;5.68;3.85;;;;;;;13.36;76.93;100564.91;5036402;28;20080;-70
2022/05/25 03:53:03;;;;;;;6.47;4.30;;;;;;;13.43;77.19;100565.34;5026924;28;20426;-70
2022/05/25 03:55:30;;;;;;;7.18;3.95;;;;;;;13.48;77.18;100562.34;5043805;28;20055;-72
2022/05/25 03:57:58;;;;;;;8.40;4.38;;;;;;;13.51;76.65;100568.28;5049747;28;20037;-71
2022/05/25 04:00:25;;;;;;;4.80;3.83;;;;;;;13.54;75.97;100565.38;5029348;28;20095;-70
2022/05/25 04:02:53;;;;;;;5.10;3.42;;;;;;;13.63;75.69;100562.06;5053674;28;20048;-71
2022/05/25 04:05:21;;;;;;;6.60;3.70;;;;;;;13.70;76.28;100557.19;5058368;28;20460;-70
2022/05/25 04:07:48;;;;;;;7.13;3.90;;;;;;;13.75;76.34;100560.34;5040581;28;20088;-70
2022/05/25 04:10:19;;;;;;;5.47;3.40;;;;;;;13.83;75.80;100568.56;5031627;28;20067;-70
2022/05/25 04:12:48;;;;;;;7.20;4.00;;;;;;;13.85;75.72;100566.66;5027828;28;20044;-71
2022/05/25 04:15:19;;;;;;;4.97;3.70;;;;;;;13.90;75.73;100574.25;5057421;28;20048;-72
2022/05/25 04:17:48;;;;;;;8.55;3.88;;;;;;;14.00;75.54;100563.81;5061964;28;20776;-69
2022/05/25 04:20:17;;;;;;;8.38;3.90;;;;;;;14.07;74.69;100570.38;5046720;28;20072;-70
2022/05/25 04:22:45;;;;;;;6.28;4.38;;;;;;;14.12;74.59;100579.63;5027209;28;20040;-71
2022/05/25 04:25:16;;;;;;;8.75;3.97;;;;;;;14.16;74.59;100585.56;5045859;28;20498;-71
2022/05/25 04:27:45;;;;;;;12.23;4.35;;;;;;;14.13;72.08;100585.78;5041138;28;20040;-71
2022/05/25 04:30:16;;;;;;;6.72;3.40;;;;;;;14.14;71.98;100593.63;5074304;28;20165;-71
2022/05/25 04:32:44;;;;;;;4.60;3.22;;;;;;;14.20;71.62;100589.66;5027260;28;20079;-71
2022/05/25 04:35:13;;;;;;;7.25;3.35;;;;;;;14.18;69.72;100581.84;5031154;28;20053;-69
2022/05/25 04:37:49;;;;;;;4.30;3.38;;;;;;;14.25;70.24;100578.72;5062785;28;20627;-72
2022/05/25 04:40:21;;;;;;;5.80;3.65;;;;;;;14.27;69.17;100588.22;5047428;28;20051;-71
2022/05/25 04:42:49;;;;;;;6.25;3.33;;;;;;;14.33;68.83;100585.16;5065900;28;20076;-70
2022/05/25 04:45:18;;;;;;;5.05;2.75;;;;;;;14.36;68.53;100592.88;5049438;28;20063;-70
2022/05/25 04:47:46;;;;;;;7.82;3.85;;;;;;;14.43;68.15;100582.63;5061679;28;20048;-72
2022/05/25 04:50:17;;;;;;;7.75;3.85;;;;;;;14.43;67.09;100582.63;5049092;28;20056;-70
2022/05/25 04:52:44;;;;;;;5.28;3.95;;;;;;;14.44;67.71;100579.03;5028902;28;20072;-70
2022/05/25 04:57:19;;;;;;;4.05;3.55;;;;;;;14.51;67.88;100582.09;5042790;28;20132;-69
2022/05/25 04:58:02;;;;;;;4.13;2.92;;;;;;;14.58;67.05;100570.06;5061562;28;20048;-70
2022/05/25 05:00:30;;;;;;;6.70;3.03;;;;;;;14.59;66.81;100577.03;5045051;28;20036;-70
2022/05/25 05:02:57;;;;;;;4.38;2.92;;;;;;;14.62;66.66;100577.66;5029170;28;20068;-72
2022/05/25 05:05:25;;;;;;;3.25;2.97;;;;;;;14.69;66.45;100578.88;5035478;28;20155;-70
2022/05/25 05:07:52;;;;;;;4.45;3.97;;;;;;;14.69;64.73;100578.88;5071675;28;20048;-70
2022/05/25 05:10:20;;;;;;;6.32;3.67;;;;;;;14.73;64.54;100576.84;5041614;28;20064;-71
2022/05/25 05:12:47;;;;;;;4.57;2.80;;;;;;;14.82;63.73;100576.13;5069149;28;20048;-70
2022/05/25 05:15:15;;;;;;;5.07;2.90;;;;;;;14.85;63.62;100585.63;5041546;28;20092;-70
2022/05/25 05:17:42;;;;;;;5.90;3.20;;;;;;;14.93;63.33;100586.72;5022028;28;20560;-69
2022/05/25 05:20:10;;;;;;;5.93;3.95;;;;;;;15.02;62.46;100595.78;5024498;28;20863;-70
2022/05/25 05:22:38;;;;;;;5.30;3.00;;;;;;;15.10;62.76;100597.84;5069267;28;20112;-70
2022/05/25 05:25:06;;;;;;;6.55;3.25;;;;;;;15.24;61.90;100594.94;5046212;28;20049;-70
2022/05/25 05:27:34;;;;;;;7.10;2.95;;;;;;;15.29;61.22;100597.25;5042129;28;20049;-70
2022/05/25 05:30:04;;;;;;;5.53;3.45;;;;;;;15.24;60.52;100604.72;5050218;28;20123;-70
2022/05/25 05:32:31;;;;;;;3.25;2.95;;;;;;;15.31;60.39;100606.78;5034507;28;20084;-70
2022/05/25 05:34:59;;;;;;;4.10;3.50;;;;;;;15.42;60.68;100613.88;5054672;28;20059;-70
2022/05/25 05:37:30;;;;;;;5.38;3.00;;;;;;;15.53;60.12;100610.34;5047858;28;20735;-70
2022/05/25 05:39:58;;;;;;;4.45;3.22;;;;;;;15.64;59.56;100615.69;5055492;28;20044;-71
2022/05/25 05:42:26;;;;;;;4.90;3.00;;;;;;;15.73;59.32;100608.81;5061597;28;20051;-70
2022/05/25 05:45:22;;;;;;;4.72;2.95;;;;;;;15.87;59.40;100613.84;5023129;28;20044;-71
2022/05/25 05:47:56;;;;;;;6.20;3.22;;;;;;;16.00;59.23;100614.50;5037567;28;20050;-71
2022/05/25 05:50:24;;;;;;;5.18;3.25;;;;;;;15.98;58.77;100616.44;5043610;28;20049;-69
2022/05/25 05:52:52;;;;;;;4.85;3.60;;;;;;;15.94;58.79;100618.53;5024580;28;20814;-70
2022/05/25 05:55:20;;;;;;;9.98;3.55;;;;;;;16.04;58.38;100628.38;5036444;28;20056;-70
2022/05/25 05:57:47;;;;;;;6.85;4.45;;;;;;;16.07;57.93;100623.66;5029971;28;20113;-70
2022/05/25 06:00:16;;;;;;;8.90;3.75;;;;;;;16.24;58.30;100624.09;5039016;28;20055;-70
2022/05/25 06:02:46;;;;;;;10.77;3.30;;;;;;;16.43;58.06;100616.25;5059767;28;20051;-70
2022/05/25 06:05:13;;;;;;;6.32;4.10;;;;;;;16.65;57.79;100620.63;5058033;28;20059;-70
2022/05/25 06:07:41;;;;;;;9.48;3.38;;;;;;;16.82;57.09;100617.41;5045147;28;20084;-68
2022/05/25 06:10:09;;;;;;;5.55;3.58;;;;;;;17.00;56.66;100619.47;5039646;28;20039;-70
2022/05/25 06:12:43;;;;;;;7.87;3.77;;;;;;;17.11;55.95;100612.28;5044615;28;20056;-68
2022/05/25 06:20:49;;;;;;;5.20;4.20;;;;;;;17.24;54.42;100627.16;5043115;28;19924;-69
2022/05/25 06:23:16;;;;;;;6.60;3.97;;;;;;;17.24;54.73;100627.16;5033790;28;20881;-69
2022/05/25 06:25:44;;;;;;;6.57;3.40;;;;;;;17.43;54.75;100629.91;5062809;28;20072;-68
2022/05/25 06:28:11;;;;;;;6.47;3.47;;;;;;;17.53;54.78;100625.44;5043440;28;20055;-69
2022/05/25 06:30:38;;;;;;;7.03;3.42;;;;;;;17.58;54.40;100630.38;5059085;28;20131;-69
2022/05/25 06:33:07;;;;;;;8.82;3.75;;;;;;;17.86;53.71;100626.13;5048961;28;20110;-69
2022/05/25 06:35:34;;;;;;;4.13;3.33;;;;;;;17.92;52.91;100633.56;5042933;28;20060;-71
2022/05/25 06:38:03;;;;;;;6.13;4.15;;;;;;;17.90;52.67;100632.88;5046506;28;20478;-69
2022/05/25 06:40:30;;;;;;;5.68;3.67;;;;;;;17.78;52.83;100642.78;5067880;28;20415;-70
2022/05/25 06:42:58;;;;;;;6.57;3.92;;;;;;;17.63;52.94;100642.28;5064090;28;20155;-69
2022/05/25 06:45:25;;;;;;;5.55;3.83;;;;;;;17.68;53.42;100642.72;5041980;28;20072;-69
2022/05/25 06:47:52;;;;;;;7.93;3.22;;;;;;;17.63;52.48;100647.63;5066081;28;20059;-69
2022/05/25 06:50:20;;;;;;;10.00;3.50;;;;;;;17.13;53.81;100652.88;5047666;28;20055;-69
2022/05/25 06:52:47;;;;;;;6.20;4.18;;;;;;;17.15;53.91;100658.88;5036160;28;20040;-69
2022/05/25 06:55:14;;;;;;;5.32;4.07;;;;;;;17.07;54.18;100656.06;5061753;28;20083;-68
2022/05/25 06:57:42;;;;;;;6.55;3.60;;;;;;;17.19;54.38;100657.66;5053690;28;20087;-70
2022/05/25 07:00:10;;;;;;;5.10;3.75;;;;;;;17.30;54.25;100650.56;5046978;28;20051;-71
2022/05/25 07:02:37;;;;;;;4.85;3.30;;;;;;;17.28;53.79;100656.00;5047005;28;20604;-69
2022/05/25 07:05:05;;;;;;;5.20;4.07;;;;;;;17.22;53.29;100664.53;5031473;28;20067;-68
2022/05/25 07:07:32;;;;;;;6.20;3.97;;;;;;;17.23;53.64;100660.06;5049199;28;20048;-70
2022/05/25 07:10:00;;;;;;;5.45;3.33;;;;;;;17.37;54.02;100662.34;5047637;28;20044;-70
2022/05/25 07:12:31;;;;;;;4.13;3.38;;;;;;;17.45;53.82;100654.56;5070038;28;20152;-70
2022/05/25 07:14:58;;;;;;;6.05;3.17;;;;;;;17.58;53.81;100662.31;5062168;28;20111;-70
2022/05/25 07:17:26;;;;;;;4.68;2.88;;;;;;;17.64;53.09;100664.44;5044688;28;20060;-71
2022/05/25 07:19:53;;;;;;;5.93;3.83;;;;;;;17.48;53.36;100662.28;5035929;28;20037;-69
2022/05/25 07:22:20;;;;;;;6.50;3.90;;;;;;;17.47;53.72;100665.91;5055662;28;20435;-69
2022/05/25 07:24:48;;;;;;;23.50;5.38;;;;;;;17.60;53.52;100669.16;5001652;28;20060;-69
2022/05/25 07:27:15;;;;;;;20.25;4.68;;;;;;;17.72;53.31;100676.09;5058667;28;20048;-68
2022/05/25 07:29:42;;;;;;;6.78;3.78;;;;;;;17.65;52.47;100676.75;5043836;28;20588;-69
2022/05/25 07:32:11;;;;;;;18.42;4.43;;;;;;;17.50;52.78;100681.59;5056462;28;20082;-69
2022/05/25 07:34:42;;;;;;;5.00;3.38;;;;;;;17.68;52.81;100679.16;5044265;28;20050;-70
2022/05/25 07:37:15;;;;;;;5.30;3.80;;;;;;;17.76;52.81;100683.84;5045410;28;20059;-69
2022/05/25 07:39:46;;;;;;;9.30;4.40;;;;;;;17.83;52.46;100682.31;5058854;28;20049;-71
2022/05/25 07:42:14;;;;;;;5.63;3.70;;;;;;;17.70;52.59;100694.03;5048327;28;20061;-69
2022/05/25 07:44:44;;;;;;;7.60;3.97;;;;;;;17.72;52.90;100699.22;5045534;28;20047;-70
2022/05/25 07:47:13;;;;;;;8.77;3.70;;;;;;;17.79;52.93;100697.75;5042652;28;20040;-69
2022/05/25 07:49:40;;;;;;;4.65;3.75;;;;;;;18.11;52.57;100700.22;5042759;28;20131;-70
2022/05/25 07:52:08;;;;;;;5.60;2.75;;;;;;;18.22;51.58;100702.72;5037774;28;20063;-70
2022/05/25 07:54:36;;;;;;;4.50;2.63;;;;;;;18.20;52.15;100694.06;5042736;28;20483;-70
2022/05/25 07:57:03;;;;;;;3.90;2.45;;;;;;;18.21;51.41;100701.06;5035345;28;20068;-70
2022/05/25 07:59:30;;;;;;;5.55;2.40;;;;;;;18.16;50.97;100716.63;5039314;28;20549;-70
2022/05/25 08:07:36;;;;;;;6.15;2.67;;;;;;;17.95;52.38;100703.38;5067688;28;20067;-69
2022/05/25 08:10:10;;;;;;;3.53;2.35;;;;;;;17.90;52.84;100700.28;5014508;28;20068;-70
2022/05/25 08:12:38;;;;;;;6.97;2.90;;;;;;;17.85;52.65;100701.69;5011023;28;20048;-70
2022/05/25 08:15:07;;;;;;;3.75;2.63;;;;;;;17.95;53.06;100710.53;5051754;28;20052;-70
2022/05/25 08:17:35;;;;;;;9.55;3.33;;;;;;;17.80;53.12;100711.91;5043525;28;20049;-70
2022/05/25 08:20:04;;;;;;;4.88;2.67;;;;;;;17.54;53.17;100725.63;5015877;28;20782;-70
2022/05/25 08:22:31;;;;;;;4.45;2.53;;;;;;;17.45;54.67;100718.44;5037380;28;20139;-70
2022/05/25 08:24:59;;;;;;;5.88;2.90;;;;;;;17.44;54.37;100711.44;5036799;28;20048;-70
2022/05/25 08:27:26;;;;;;;6.00;2.60;;;;;;;17.63;54.00;100705.34;5052142;28;20044;-69
2022/05/25 08:29:53;;;;;;;6.28;2.65;;;;;;;17.78;53.77;100716.50;5058153;28;20140;-70
2022/05/25 08:32:20;;;;;;;4.13;3.20;;;;;;;17.75;53.28;100712.31;5050056;28;20071;-68
2022/05/25 08:34:48;;;;;;;8.48;2.92;;;;;;;17.84;52.83;100714.16;5033112;28;20049;-69
2022/05/25 08:37:15;;;;;;;6.57;2.63;;;;;;;17.90;52.88;100720.75;5047058;28;20491;-69
2022/05/25 08:39:42;;;;;;;4.93;2.47;;;;;;;17.95;52.03;100718.53;5030126;28;20131;-69
2022/05/25 08:42:14;;;;;;;5.03;2.80;;;;;;;17.93;52.92;100720.50;5062786;28;20110;-69
2022/05/25 08:44:42;;;;;;;9.80;3.38;;;;;;;18.03;52.80;100712.53;5043526;28;20135;-69
2022/05/25 08:47:12;;;;;;;11.98;3.00;;;;;;;18.27;52.60;100705.00;5022218;28;20731;-69
2022/05/25 08:49:42;;;;;;;7.35;3.00;;;;;;;18.33;52.54;100717.78;5037114;28;20113;-69
2022/05/25 08:52:28;;;;;;;7.00;3.22;;;;;;;18.02;53.14;100708.19;5043763;28;20045;-70
2022/05/25 08:54:58;;;;;;;7.05;3.20;;;;;;;18.13;53.30;100710.72;5061984;28;20163;-70
2022/05/25 08:57:32;;;;;;;5.05;2.40;;;;;;;18.17;52.81;100715.63;5026478;28;20064;-70
2022/05/25 09:00:12;;;;;;;6.10;2.45;;;;;;;18.22;51.98;100718.72;5037560;28;20127;-69
2022/05/25 09:03:01;;;;;;;4.80;2.10;;;;;;;18.14;51.46;100710.56;5029485;28;20083;-69
2022/05/25 09:05:29;;;;;;;8.63;2.63;;;;;;;17.98;50.67;100712.09;5038498;28;20049;-69
2022/05/25 09:08:12;;;;;;;4.82;2.50;;;;;;;18.26;50.53;100721.13;5042635;28;20052;-70
2022/05/25 09:10:45;;;;;;;5.45;2.20;;;;;;;18.31;50.77;100711.72;5060374;28;20108;-69
2022/05/25 09:13:17;;;;;;;7.63;2.50;;;;;;;18.61;50.80;100715.28;5048962;28;20578;-69
2022/05/25 09:18:36;;;;;;;5.03;3.00;;;;;;;19.23;49.17;100712.16;5048180;28;20396;-69
2022/05/25 09:21:06;;;;;;;5.28;2.40;;;;;;;19.15;49.48;100712.03;5027231;28;20054;-70
2022/05/25 09:23:35;;;;;;;7.55;2.50;;;;;;;19.27;48.97;100712.69;5050880;28;20289;-70
2022/05/25 09:26:02;;;;;;;9.00;2.13;;;;;;;19.36;49.11;100708.31;5043830;28;20048;-69
2022/05/25 09:28:46;;;;;;;9.15;2.53;;;;;;;19.15;49.26;100717.34;5048246;28;20045;-69
2022/05/25 09:31:18;;;;;;;7.07;2.20;;;;;;;18.52;49.31;100722.28;5046384;28;20063;-70
2022/05/25 09:33:52;;;;;;;6.35;2.92;;;;;;;18.41;50.08;100719.72;5043207;28;20509;-69
2022/05/25 09:36:22;;;;;;;6.05;1.90;;;;;;;18.65;49.93;100717.53;5041457;28;20108;-70
2022/05/25 09:39:14;;;;;;;3.42;1.58;;;;;;;19.01;49.05;100717.81;5064586;28;20976;-69
2022/05/25 09:41:43;;;;;;;6.63;2.03;;;;;;;19.30;48.84;100711.56;5066286;28;20051;-70
2022/05/25 09:44:15;;;;;;;7.93;2.03;;;;;;;19.44;47.15;100706.59;5028371;28;20086;-69
2022/05/25 09:46:48;;;;;;;2.92;1.83;;;;;;;19.67;47.04;100709.78;5062208;28;20044;-70
2022/05/25 09:49:34;;;;;;;4.93;1.73;;;;;;;19.92;46.59;100712.75;5045030;28;20052;-69
2022/05/25 09:52:12;;;;;;;9.68;2.58;;;;;;;20.27;45.24;100712.00;5047151;28;20032;-71
2022/05/25 09:54:46;;;;;;;3.03;1.33;;;;;;;20.19;44.48;100717.25;5030188;28;20717;-68
2022/05/25 09:57:25;;;;;;;3.00;2.20;;;;;;;20.26;44.29;100707.63;5051142;28;20104;-70
2022/05/25 10:00:21;;;;;;;5.72;1.55;;;;;;;20.37;44.75;100714.59;5025817;28;20056;-68
2022/05/25 10:03:03;;;;;;;4.10;1.65;;;;;;;20.23;44.24;100705.28;5051730;28;20423;-69
2022/05/25 10:05:34;;;;;;;8.95;1.60;;;;;;;20.08;42.28;100720.94;5042096;28;20048;-69
2022/05/25 10:08:04;;;;;;;5.07;1.60;;;;;;;20.22;41.34;100712.44;5052162;28;20040;-68
2022/05/25 10:10:34;;;;;;;6.03;1.52;;;;;;;20.41;41.66;100711.47;5032230;28;20061;-70
2022/05/25 10:13:14;;;;;;;9.93;1.80;;;;;;;20.09;41.96;100719.97;5031667;28;20041;-69
2022/05/25 10:15:51;;;;;;;7.28;1.13;;;;;;;19.87;41.58;100707.03;5031577;28;20044;-70
2022/05/25 10:18:38;;;;;;;3.63;1.90;;;;;;;19.93;41.97;100703.75;5058578;28;20048;-71
2022/05/25 10:21:11;;;;;;;18.05;2.95;;;;;;;20.31;41.93;100715.19;5044978;28;20052;-71
2022/05/25 10:23:42;;;;;;;7.10;1.60;;;;;;;20.26;41.48;100704.94;5044122;28;20055;-71
2022/05/25 10:26:12;;;;;;;8.60;1.55;;;;;;;20.41;41.10;100689.25;5046776;28;21713;-71
2022/05/25 10:28:57;;;;;;;4.60;1.35;;;;;;;20.83;41.59;100696.66;5064834;28;20090;-70
2022/05/25 10:37:19;;;;;;;2.70;1.10;;;;;;;20.76;38.85;100706.28;5031685;28;20633;-70
2022/05/25 10:39:55;;;;;;;4.30;1.02;;;;;;;20.17;40.00;100689.81;5013506;28;20068;-70
2022/05/25 10:42:26;;;;;;;4.25;0.98;;;;;;;20.13;39.63;100691.97;5065970;28;20131;-70
2022/05/25 10:45:06;;;;;;;7.70;1.42;;;;;;;20.33;40.03;100679.28;5028062;28;20727;-70
2022/05/25 10:47:55;;;;;;;22.02;2.03;;;;;;;20.67;38.92;100684.84;5055860;28;20135;-70
2022/05/25 10:50:30;;;;;;;12.30;1.70;;;;;;;20.49;38.82;100673.31;5046136;28;20072;-70
2022/05/25 10:53:22;;;;;;;5.80;1.67;;;;;;;20.59;40.24;100678.56;5043059;28;20045;-71
2022/05/25 10:56:11;;;;;;;3.00;1.00;;;;;;;20.98;39.76;100682.56;5060177;28;20091;-69
2022/05/25 10:58:51;;;;;;;1.98;0.60;;;;;;;20.90;39.80;100676.31;5046349;28;20098;-69
2022/05/25 11:01:26;;;;;;;5.32;1.00;;;;;;;20.82;39.09;100671.75;5041954;28;20456;-70
2022/05/25 11:04:19;;;;;;;4.45;0.75;;;;;;;20.89;38.02;100690.66;5063677;28;20151;-70
2022/05/25 11:07:16;;;;;;;3.20;1.23;;;;;;;21.15;38.12;100675.47;5027021;28;20490;-69
2022/05/25 11:09:49;;;;;;;5.00;0.95;;;;;;;21.45;37.12;100674.19;5066983;28;20056;-70
2022/05/25 11:12:23;;;;;;;2.85;1.00;;;;;;;21.20;38.16;100667.81;5063153;28;20586;-68
2022/05/25 11:15:06;;;;;;;3.67;1.10;;;;;;;21.49;37.78;100666.66;5055672;28;20605;-69
2022/05/25 11:18:04;;;;;;;2.97;1.00;;;;;;;21.61;36.84;100665.34;5039498;28;20181;-69
2022/05/25 11:20:45;;;;;;;2.65;1.40;;;;;;;21.64;36.60;100670.41;5027975;28;20060;-69
2022/05/25 11:23:35;;;;;;;3.20;1.00;;;;;;;21.48;36.95;100654.28;5022855;28;20533;-69
2022/05/25 11:26:18;;;;;;;1.60;0.93;;;;;;;20.97;38.05;100672.00;5037906;28;20041;-69
2022/05/25 11:29:26;;;;;;;0.95;0.88;;;;;;;20.68;39.06;100664.28;5037925;28;20533;-69
2022/05/25 11:32:12;;;;;;;5.85;0.95;;;;;;;20.95;38.57;100657.97;5041334;28;20486;-68
2022/05/25 11:35:04;;;;;;;2.25;1.23;;;;;;;21.29;36.86;100665.19;5054874;28;20060;-69
2022/05/25 11:37:50;;;;;;;3.75;1.00;;;;;;;21.47;37.67;100664.13;5052912;28;20215;-68
2022/05/25 11:40:26;;;;;;;2.47;1.00;;;;;;;21.39;37.70;100672.16;5064367;28;20047;-69
2022/05/25 11:43:10;;;;;;;4.35;0.70;;;;;;;21.62;37.01;100658.19;5029241;28;20151;-69
2022/05/25 11:45:46;;;;;;;2.88;0.70;;;;;;;22.44;36.21;100651.22;5046163;28;20392;-69
2022/05/25 11:48:39;;;;;;;2.58;0.95;;;;;;;22.24;35.16;100662.25;5054992;28;20044;-69
2022/05/25 11:51:33;;;;;;;4.13;0.80;;;;;;;22.09;35.43;100665.69;5041206;28;20053;-69
2022/05/25 11:54:14;;;;;;;1.67;0.73;;;;;;;22.01;35.31;100653.09;5042706;28;20091;-68
2022/05/25 11:56:45;;;;;;;3.38;0.70;;;;;;;22.37;35.69;100661.75;5042412;28;20064;-69
2022/05/25 11:59:40;;;;;;;1.90;0.95;;;;;;;23.00;35.08;100644.16;5046749;28;20052;-69
2022/05/25 12:02:33;;;;;;;4.70;1.02;;;;;;;22.93;32.78;100656.59;5026283;28;20063;-68
2022/05/25 12:05:19;;;;;;;5.15;1.25;;;;;;;22.87;33.25;100657.22;5066891;28;20079;-69
2022/05/25 12:07:56;;;;;;;3.95;0.90;;;;;;;22.82;33.02;100655.03;5051344;28;20044;-69
2022/05/25 12:10:39;;;;;;;2.63;1.13;;;;;;;22.64;33.48;100673.16;5049761;28;20056;-68
2022/05/25 12:13:22;;;;;;;1.85;0.80;;;;;;;22.48;34.44;100653.38;5052926;28;20470;-68